Jiexiu, China
Current Conditions -  °F | °C
As of 7:00 PM on Wednesday 26 Nov 2014 (Local Time) from ZBYN Reporting Station
Haze Haze  
Wind Chill: 34°   Ceiling: Unl
Heat Index: 39°   Visibility: 2.5mi
Dew Point: 28°   Wind: 7mph
Humidity: 65%   Direction: 50°NE
Pressure: 29.97"   Gusts: NA
Location:  37.04°N, 111.9°E
Report Text: ZBYN 261100Z 05003MPS 360V060 4000 HZ NSC 04/M02 Q1015 NOSIG
Loading
Personal Weather Stations






























Interactive Weather Map New forecast layout! Learn more

10-Day Weather Forecast

Advertisements
Track Severe Weather on mobile